Terminal Aerodrome Forecast
Issued by NWS Mt. Holly, NJ

Home | Current Version | Previous Version | Text Only | Print | Product List | Glossary On
Versions: 1 2 3 4 5 6 7 8 9 10 11 12 13 14 15 16 17 18 19 20 21 22 23 24 25 26 27
851
FTUS41 KPHI 181819 AAA
TAFRDG
TAF AMD
KRDG 181819Z 1818/1918 32007G14KT P6SM VCSH BKN025 OVC060
     FM182000 32008KT P6SM BKN030 OVC050
     FM190000 VRB04KT P6SM BKN040
     FM191400 32005KT P6SM SCT250
     FM191700 30006KT P6SM FEW030 SCT250=

USA.gov is the U.S. government's official web portal to all federal, state and local government web resources and services.